CheckWX is a tool to help pilots better visualize weather data.  It is not intended as a substitute for an official pre-flight weather briefing.

01:05:43 UTC

KBBW METAR
Broken Bow Municipal / Keith Glaze Field Airport
Broken Bow, Nebraska, USA
Current

13 mins ago

KBBW 270053Z AUTO 18013KT 10SM CLR 16/07 A3003 RMK AO2 SLP174 T01610072
Observed
Mar-27 @ 00:53 UTC
Wind
  • 180° at 13 KTS
Visibility
10 SM
Flight Rules
VFR
Cloud Levels
  • Clear skies
Temperature
16°C / 61°F
Dewpoint
C / 45°F
Humidity
55%
Altimeter
30.03" Hg
Pressure
1017.4 hPa
Previous

1 hour ago

KBBW 262353Z AUTO 18012KT 10SM CLR 18/07 A3004 RMK AO2 SLP172 T01780067 10194 20117 56020
Observed
Mar-26 @ 23:53 UTC
Wind
  • 180° at 12 KTS
Visibility
10 SM
Flight Rules
VFR
Cloud Levels
  • Clear skies
Temperature
18°C / 64°F
Dewpoint
C / 45°F
Humidity
49%
Altimeter
30.04" Hg
Pressure
1017.2 hPa
Previous

2 hours ago

KBBW 262253Z AUTO 19015G24KT 10SM CLR 18/06 A3005 RMK AO2 PK WND 21029/2214 SLP176 T01830061
Observed
Mar-26 @ 22:53 UTC
Wind
  • 190° at 15 KTS
  • Gusting to 24 KTS
Visibility
10 SM
Flight Rules
VFR
Cloud Levels
  • Clear skies
Temperature
18°C / 64°F
Dewpoint
C / 43°F
Humidity
46%
Altimeter
30.05" Hg
Pressure
1017.6 hPa